sensor_id;sensor_type;location;lat;lon;timestamp;temperature;humidity
44517;DHT22;30223;17.182;-96.766;2023-01-15T00:01:39;23.30;53.50
44517;DHT22;30223;17.182;-96.766;2023-01-15T00:04:07;23.40;53.60
44517;DHT22;30223;17.182;-96.766;2023-01-15T00:06:39;23.30;53.60
44517;DHT22;30223;17.182;-96.766;2023-01-15T00:09:07;23.30;53.60
44517;DHT22;30223;17.182;-96.766;2023-01-15T00:11:34;23.30;53.60
44517;DHT22;30223;17.182;-96.766;2023-01-15T00:14:01;23.30;53.70
44517;DHT22;30223;17.182;-96.766;2023-01-15T00:16:28;23.30;53.60
44517;DHT22;30223;17.182;-96.766;2023-01-15T00:18:57;23.20;53.60
44517;DHT22;30223;17.182;-96.766;2023-01-15T00:21:25;23.30;53.70
44517;DHT22;30223;17.182;-96.766;2023-01-15T00:23:53;23.20;53.70
44517;DHT22;30223;17.182;-96.766;2023-01-15T00:26:38;23.20;53.70
44517;DHT22;30223;17.182;-96.766;2023-01-15T00:29:24;23.20;53.70
44517;DHT22;30223;17.182;-96.766;2023-01-15T00:32:02;23.20;53.70
44517;DHT22;30223;17.182;-96.766;2023-01-15T00:34:30;23.20;53.70
44517;DHT22;30223;17.182;-96.766;2023-01-15T00:36:57;23.20;53.80
44517;DHT22;30223;17.182;-96.766;2023-01-15T00:39:25;23.20;53.80
44517;DHT22;30223;17.182;-96.766;2023-01-15T00:41:52;23.10;53.80
44517;DHT22;30223;17.182;-96.766;2023-01-15T00:44:19;23.10;53.80
44517;DHT22;30223;17.182;-96.766;2023-01-15T00:46:47;23.10;53.90
44517;DHT22;30223;17.182;-96.766;2023-01-15T00:49:14;23.10;53.90
44517;DHT22;30223;17.182;-96.766;2023-01-15T00:51:40;23.10;53.80
44517;DHT22;30223;17.182;-96.766;2023-01-15T00:54:07;23.10;53.90
44517;DHT22;30223;17.182;-96.766;2023-01-15T00:56:34;23.10;53.90
44517;DHT22;30223;17.182;-96.766;2023-01-15T00:59:03;23.00;53.80
44517;DHT22;30223;17.182;-96.766;2023-01-15T01:01:30;23.00;53.90
44517;DHT22;30223;17.182;-96.766;2023-01-15T01:03:56;23.00;53.90
44517;DHT22;30223;17.182;-96.766;2023-01-15T01:06:24;23.00;53.80
44517;DHT22;30223;17.182;-96.766;2023-01-15T01:08:51;23.00;53.80
44517;DHT22;30223;17.182;-96.766;2023-01-15T01:11:19;23.00;53.80
44517;DHT22;30223;17.182;-96.766;2023-01-15T01:13:46;22.90;53.70
44517;DHT22;30223;17.182;-96.766;2023-01-15T01:16:32;22.90;53.70
44517;DHT22;30223;17.182;-96.766;2023-01-15T01:19:03;22.90;54.40
44517;DHT22;30223;17.182;-96.766;2023-01-15T01:21:30;22.90;53.80
44517;DHT22;30223;17.182;-96.766;2023-01-15T01:24:00;22.90;53.70
44517;DHT22;30223;17.182;-96.766;2023-01-15T01:26:28;22.90;53.80
44517;DHT22;30223;17.182;-96.766;2023-01-15T01:28:55;22.90;53.80
44517;DHT22;30223;17.182;-96.766;2023-01-15T01:31:22;22.80;53.70
44517;DHT22;30223;17.182;-96.766;2023-01-15T01:33:54;22.80;53.70
44517;DHT22;30223;17.182;-96.766;2023-01-15T01:36:30;22.70;53.70
44517;DHT22;30223;17.182;-96.766;2023-01-15T01:38:57;22.80;53.80
44517;DHT22;30223;17.182;-96.766;2023-01-15T01:41:24;22.80;53.80
44517;DHT22;30223;17.182;-96.766;2023-01-15T01:46:42;22.70;53.70
44517;DHT22;30223;17.182;-96.766;2023-01-15T01:49:11;22.70;53.80
44517;DHT22;30223;17.182;-96.766;2023-01-15T01:51:48;22.70;53.70
44517;DHT22;30223;17.182;-96.766;2023-01-15T01:54:18;22.70;53.70
44517;DHT22;30223;17.182;-96.766;2023-01-15T01:56:48;22.70;53.70
44517;DHT22;30223;17.182;-96.766;2023-01-15T01:59:17;22.70;53.70
44517;DHT22;30223;17.182;-96.766;2023-01-15T02:01:45;22.60;53.70
44517;DHT22;30223;17.182;-96.766;2023-01-15T02:04:12;22.60;53.70
44517;DHT22;30223;17.182;-96.766;2023-01-15T02:06:40;22.60;53.70
44517;DHT22;30223;17.182;-96.766;2023-01-15T02:09:07;22.60;53.70
44517;DHT22;30223;17.182;-96.766;2023-01-15T02:11:35;22.60;53.70
44517;DHT22;30223;17.182;-96.766;2023-01-15T02:14:08;22.50;53.70
44517;DHT22;30223;17.182;-96.766;2023-01-15T02:16:42;22.50;53.60
44517;DHT22;30223;17.182;-96.766;2023-01-15T02:19:44;22.50;53.60
44517;DHT22;30223;17.182;-96.766;2023-01-15T02:27:24;22.40;53.60
44517;DHT22;30223;17.182;-96.766;2023-01-15T02:30:12;22.40;53.60
44517;DHT22;30223;17.182;-96.766;2023-01-15T02:32:58;22.40;53.60
44517;DHT22;30223;17.182;-96.766;2023-01-15T02:35:39;22.40;53.50
44517;DHT22;30223;17.182;-96.766;2023-01-15T02:38:11;22.40;53.50
44517;DHT22;30223;17.182;-96.766;2023-01-15T02:40:43;22.40;53.50
44517;DHT22;30223;17.182;-96.766;2023-01-15T02:43:12;22.30;53.40
44517;DHT22;30223;17.182;-96.766;2023-01-15T02:45:42;22.30;53.40
44517;DHT22;30223;17.182;-96.766;2023-01-15T02:48:15;22.30;53.40
44517;DHT22;30223;17.182;-96.766;2023-01-15T02:50:54;22.30;53.40
44517;DHT22;30223;17.182;-96.766;2023-01-15T02:53:26;22.30;53.40
44517;DHT22;30223;17.182;-96.766;2023-01-15T02:55:59;22.30;53.40
44517;DHT22;30223;17.182;-96.766;2023-01-15T02:58:35;22.20;53.40
44517;DHT22;30223;17.182;-96.766;2023-01-15T03:01:10;22.20;53.30
44517;DHT22;30223;17.182;-96.766;2023-01-15T03:03:41;22.20;53.30
44517;DHT22;30223;17.182;-96.766;2023-01-15T03:08:51;22.20;53.30
44517;DHT22;30223;17.182;-96.766;2023-01-15T03:11:19;22.20;53.30
44517;DHT22;30223;17.182;-96.766;2023-01-15T03:16:35;22.20;53.30
44517;DHT22;30223;17.182;-96.766;2023-01-15T03:21:42;22.10;53.20
44517;DHT22;30223;17.182;-96.766;2023-01-15T03:24:10;22.10;53.20
44517;DHT22;30223;17.182;-96.766;2023-01-15T03:26:38;22.10;53.20
44517;DHT22;30223;17.182;-96.766;2023-01-15T03:29:07;22.00;53.10
44517;DHT22;30223;17.182;-96.766;2023-01-15T03:31:35;22.00;53.10
44517;DHT22;30223;17.182;-96.766;2023-01-15T03:34:02;22.00;53.20
44517;DHT22;30223;17.182;-96.766;2023-01-15T03:36:29;22.00;53.10
44517;DHT22;30223;17.182;-96.766;2023-01-15T03:38:56;22.00;53.10
44517;DHT22;30223;17.182;-96.766;2023-01-15T03:45:28;21.90;53.10
44517;DHT22;30223;17.182;-96.766;2023-01-15T03:47:34;21.90;53.10
44517;DHT22;30223;17.182;-96.766;2023-01-15T03:53:21;21.90;53.00
44517;DHT22;30223;17.182;-96.766;2023-01-15T04:01:12;21.80;53.00
44517;DHT22;30223;17.182;-96.766;2023-01-15T04:03:40;21.80;53.00
44517;DHT22;30223;17.182;-96.766;2023-01-15T04:06:08;21.80;52.90
44517;DHT22;30223;17.182;-96.766;2023-01-15T04:08:38;21.80;52.90
44517;DHT22;30223;17.182;-96.766;2023-01-15T04:11:05;21.70;52.80
44517;DHT22;30223;17.182;-96.766;2023-01-15T04:13:32;21.70;52.80
44517;DHT22;30223;17.182;-96.766;2023-01-15T04:15:59;21.70;52.90
44517;DHT22;30223;17.182;-96.766;2023-01-15T04:18:26;21.70;52.80
44517;DHT22;30223;17.182;-96.766;2023-01-15T04:20:53;21.60;52.80
44517;DHT22;30223;17.182;-96.766;2023-01-15T04:23:21;21.60;52.70
44517;DHT22;30223;17.182;-96.766;2023-01-15T04:25:48;21.60;52.70
44517;DHT22;30223;17.182;-96.766;2023-01-15T04:28:14;21.60;52.70
44517;DHT22;30223;17.182;-96.766;2023-01-15T04:30:41;21.60;53.30
44517;DHT22;30223;17.182;-96.766;2023-01-15T04:33:08;21.60;52.70
44517;DHT22;30223;17.182;-96.766;2023-01-15T04:35:36;21.50;52.60
44517;DHT22;30223;17.182;-96.766;2023-01-15T04:38:03;21.50;52.60
44517;DHT22;30223;17.182;-96.766;2023-01-15T04:40:30;21.50;52.60
44517;DHT22;30223;17.182;-96.766;2023-01-15T04:43:35;21.50;52.50
44517;DHT22;30223;17.182;-96.766;2023-01-15T04:46:23;21.50;52.50
44517;DHT22;30223;17.182;-96.766;2023-01-15T04:48:50;21.40;52.40
44517;DHT22;30223;17.182;-96.766;2023-01-15T04:51:17;21.40;52.40
44517;DHT22;30223;17.182;-96.766;2023-01-15T04:53:44;21.40;52.40
44517;DHT22;30223;17.182;-96.766;2023-01-15T04:56:10;21.40;52.30
44517;DHT22;30223;17.182;-96.766;2023-01-15T04:58:37;21.40;52.30
44517;DHT22;30223;17.182;-96.766;2023-01-15T05:01:13;21.40;52.30
44517;DHT22;30223;17.182;-96.766;2023-01-15T05:03:41;21.40;52.30
44517;DHT22;30223;17.182;-96.766;2023-01-15T05:06:08;21.40;52.30
44517;DHT22;30223;17.182;-96.766;2023-01-15T05:08:35;21.30;52.30
44517;DHT22;30223;17.182;-96.766;2023-01-15T05:11:06;21.30;52.20
44517;DHT22;30223;17.182;-96.766;2023-01-15T05:13:33;21.30;52.20
44517;DHT22;30223;17.182;-96.766;2023-01-15T05:16:17;21.30;52.20
44517;DHT22;30223;17.182;-96.766;2023-01-15T05:18:45;21.20;52.10
44517;DHT22;30223;17.182;-96.766;2023-01-15T05:21:19;21.20;52.10
44517;DHT22;30223;17.182;-96.766;2023-01-15T05:23:48;21.20;52.00
44517;DHT22;30223;17.182;-96.766;2023-01-15T05:26:15;21.20;52.00
44517;DHT22;30223;17.182;-96.766;2023-01-15T05:28:41;21.20;52.00
44517;DHT22;30223;17.182;-96.766;2023-01-15T05:31:16;21.10;51.90
44517;DHT22;30223;17.182;-96.766;2023-01-15T05:33:44;21.10;51.90
44517;DHT22;30223;17.182;-96.766;2023-01-15T05:36:14;21.10;51.90
44517;DHT22;30223;17.182;-96.766;2023-01-15T05:38:41;21.10;51.90
44517;DHT22;30223;17.182;-96.766;2023-01-15T05:41:13;21.10;51.80
44517;DHT22;30223;17.182;-96.766;2023-01-15T05:44:05;21.10;51.80
44517;DHT22;30223;17.182;-96.766;2023-01-15T05:46:36;21.00;51.80
44517;DHT22;30223;17.182;-96.766;2023-01-15T05:49:05;21.00;51.70
44517;DHT22;30223;17.182;-96.766;2023-01-15T05:51:36;21.00;51.70
44517;DHT22;30223;17.182;-96.766;2023-01-15T05:54:05;21.00;51.70
44517;DHT22;30223;17.182;-96.766;2023-01-15T05:56:36;21.00;51.70
44517;DHT22;30223;17.182;-96.766;2023-01-15T05:59:05;21.00;51.70
44517;DHT22;30223;17.182;-96.766;2023-01-15T06:01:35;20.90;51.60
44517;DHT22;30223;17.182;-96.766;2023-01-15T06:04:03;20.90;51.50
44517;DHT22;30223;17.182;-96.766;2023-01-15T06:06:31;20.90;51.60
44517;DHT22;30223;17.182;-96.766;2023-01-15T06:08:57;20.90;51.50
44517;DHT22;30223;17.182;-96.766;2023-01-15T06:11:24;20.80;51.50
44517;DHT22;30223;17.182;-96.766;2023-01-15T06:13:51;20.80;51.40
44517;DHT22;30223;17.182;-96.766;2023-01-15T06:16:18;20.80;51.40
44517;DHT22;30223;17.182;-96.766;2023-01-15T06:18:45;20.80;51.40
44517;DHT22;30223;17.182;-96.766;2023-01-15T06:21:13;20.80;51.40
44517;DHT22;30223;17.182;-96.766;2023-01-15T06:23:40;20.70;51.30
44517;DHT22;30223;17.182;-96.766;2023-01-15T06:26:17;20.70;51.30
44517;DHT22;30223;17.182;-96.766;2023-01-15T06:28:44;20.70;51.30
44517;DHT22;30223;17.182;-96.766;2023-01-15T06:31:13;20.70;51.30
44517;DHT22;30223;17.182;-96.766;2023-01-15T06:33:40;20.60;51.20
44517;DHT22;30223;17.182;-96.766;2023-01-15T06:36:15;20.60;51.20
44517;DHT22;30223;17.182;-96.766;2023-01-15T06:38:42;20.60;51.20
44517;DHT22;30223;17.182;-96.766;2023-01-15T06:41:13;20.60;51.10
44517;DHT22;30223;17.182;-96.766;2023-01-15T06:43:59;20.60;51.20
44517;DHT22;30223;17.182;-96.766;2023-01-15T06:46:48;20.50;51.10
44517;DHT22;30223;17.182;-96.766;2023-01-15T06:49:35;20.50;51.10
44517;DHT22;30223;17.182;-96.766;2023-01-15T06:52:02;20.50;51.00
44517;DHT22;30223;17.182;-96.766;2023-01-15T06:54:29;20.50;51.00
44517;DHT22;30223;17.182;-96.766;2023-01-15T06:56:56;20.50;51.00
44517;DHT22;30223;17.182;-96.766;2023-01-15T06:59:23;20.50;51.00
44517;DHT22;30223;17.182;-96.766;2023-01-15T07:01:50;20.40;50.90
44517;DHT22;30223;17.182;-96.766;2023-01-15T07:04:16;20.40;50.90
44517;DHT22;30223;17.182;-96.766;2023-01-15T07:06:43;20.40;50.90
44517;DHT22;30223;17.182;-96.766;2023-01-15T07:09:10;20.40;50.90
44517;DHT22;30223;17.182;-96.766;2023-01-15T07:11:37;20.40;50.80
44517;DHT22;30223;17.182;-96.766;2023-01-15T07:14:23;20.30;50.80
44517;DHT22;30223;17.182;-96.766;2023-01-15T07:16:51;20.40;50.80
44517;DHT22;30223;17.182;-96.766;2023-01-15T07:19:18;20.30;50.70
44517;DHT22;30223;17.182;-96.766;2023-01-15T07:21:45;20.30;50.80
44517;DHT22;30223;17.182;-96.766;2023-01-15T07:24:13;20.30;50.70
44517;DHT22;30223;17.182;-96.766;2023-01-15T07:26:41;20.30;50.70
44517;DHT22;30223;17.182;-96.766;2023-01-15T07:29:09;20.30;50.70
44517;DHT22;30223;17.182;-96.766;2023-01-15T07:31:36;20.20;50.60
44517;DHT22;30223;17.182;-96.766;2023-01-15T07:34:03;20.20;50.60
44517;DHT22;30223;17.182;-96.766;2023-01-15T07:36:30;20.20;50.60
44517;DHT22;30223;17.182;-96.766;2023-01-15T07:38:56;20.20;50.70
44517;DHT22;30223;17.182;-96.766;2023-01-15T07:41:23;20.20;50.60
44517;DHT22;30223;17.182;-96.766;2023-01-15T07:44:10;20.10;50.60
44517;DHT22;30223;17.182;-96.766;2023-01-15T07:46:55;20.10;50.50
44517;DHT22;30223;17.182;-96.766;2023-01-15T07:49:42;20.10;50.60
44517;DHT22;30223;17.182;-96.766;2023-01-15T07:52:13;20.10;50.50
44517;DHT22;30223;17.182;-96.766;2023-01-15T07:54:40;20.10;50.50
44517;DHT22;30223;17.182;-96.766;2023-01-15T07:57:07;20.00;50.40
44517;DHT22;30223;17.182;-96.766;2023-01-15T07:59:34;20.00;50.40
44517;DHT22;30223;17.182;-96.766;2023-01-15T08:02:00;20.00;50.50
44517;DHT22;30223;17.182;-96.766;2023-01-15T08:04:27;20.00;50.50
44517;DHT22;30223;17.182;-96.766;2023-01-15T08:06:54;19.90;50.30
44517;DHT22;30223;17.182;-96.766;2023-01-15T08:09:20;19.90;50.30
44517;DHT22;30223;17.182;-96.766;2023-01-15T08:11:47;19.90;50.30
44517;DHT22;30223;17.182;-96.766;2023-01-15T08:14:32;19.90;50.30
44517;DHT22;30223;17.182;-96.766;2023-01-15T08:17:16;19.90;50.30
44517;DHT22;30223;17.182;-96.766;2023-01-15T08:19:43;19.90;50.30
44517;DHT22;30223;17.182;-96.766;2023-01-15T08:22:10;19.90;50.30
44517;DHT22;30223;17.182;-96.766;2023-01-15T08:24:37;19.80;50.20
44517;DHT22;30223;17.182;-96.766;2023-01-15T08:27:04;19.80;50.20
44517;DHT22;30223;17.182;-96.766;2023-01-15T08:29:31;19.80;50.20
44517;DHT22;30223;17.182;-96.766;2023-01-15T08:31:57;19.70;50.20
44517;DHT22;30223;17.182;-96.766;2023-01-15T08:34:24;19.80;50.20
44517;DHT22;30223;17.182;-96.766;2023-01-15T08:36:51;19.80;50.20
44517;DHT22;30223;17.182;-96.766;2023-01-15T08:39:26;19.70;50.10
44517;DHT22;30223;17.182;-96.766;2023-01-15T08:41:54;19.70;50.10
44517;DHT22;30223;17.182;-96.766;2023-01-15T08:44:21;19.70;50.10
44517;DHT22;30223;17.182;-96.766;2023-01-15T08:46:50;19.70;50.10
44517;DHT22;30223;17.182;-96.766;2023-01-15T08:49:20;19.60;50.00
44517;DHT22;30223;17.182;-96.766;2023-01-15T08:51:47;19.60;50.00
44517;DHT22;30223;17.182;-96.766;2023-01-15T08:54:19;19.60;50.00
44517;DHT22;30223;17.182;-96.766;2023-01-15T08:56:46;19.60;50.00
44517;DHT22;30223;17.182;-96.766;2023-01-15T08:59:13;19.60;50.00
44517;DHT22;30223;17.182;-96.766;2023-01-15T09:01:40;19.60;50.00
44517;DHT22;30223;17.182;-96.766;2023-01-15T09:04:08;19.50;49.90
44517;DHT22;30223;17.182;-96.766;2023-01-15T09:06:34;19.50;49.90
44517;DHT22;30223;17.182;-96.766;2023-01-15T09:09:01;19.50;49.90
44517;DHT22;30223;17.182;-96.766;2023-01-15T09:11:28;19.50;49.90
44517;DHT22;30223;17.182;-96.766;2023-01-15T09:13:54;19.40;49.80
44517;DHT22;30223;17.182;-96.766;2023-01-15T09:16:21;19.40;49.80
44517;DHT22;30223;17.182;-96.766;2023-01-15T09:18:48;19.40;49.80
44517;DHT22;30223;17.182;-96.766;2023-01-15T09:21:15;19.40;49.80
44517;DHT22;30223;17.182;-96.766;2023-01-15T09:23:41;19.40;49.70
44517;DHT22;30223;17.182;-96.766;2023-01-15T09:26:28;19.30;49.70
44517;DHT22;30223;17.182;-96.766;2023-01-15T09:28:55;19.40;49.80
44517;DHT22;30223;17.182;-96.766;2023-01-15T09:31:23;19.30;49.70
44517;DHT22;30223;17.182;-96.766;2023-01-15T09:33:50;19.30;49.60
44517;DHT22;30223;17.182;-96.766;2023-01-15T09:36:26;19.30;49.60
44517;DHT22;30223;17.182;-96.766;2023-01-15T09:38:54;19.20;49.60
44517;DHT22;30223;17.182;-96.766;2023-01-15T09:41:23;19.30;49.60
44517;DHT22;30223;17.182;-96.766;2023-01-15T09:44:25;19.20;49.60
44517;DHT22;30223;17.182;-96.766;2023-01-15T09:47:13;19.20;49.60
44517;DHT22;30223;17.182;-96.766;2023-01-15T09:55:19;19.10;49.50
44517;DHT22;30223;17.182;-96.766;2023-01-15T09:57:51;19.10;49.50
44517;DHT22;30223;17.182;-96.766;2023-01-15T10:00:22;19.10;49.40
44517;DHT22;30223;17.182;-96.766;2023-01-15T10:06:06;19.00;49.50
44517;DHT22;30223;17.182;-96.766;2023-01-15T10:08:49;19.00;49.40
44517;DHT22;30223;17.182;-96.766;2023-01-15T10:14:04;19.00;49.40
44517;DHT22;30223;17.182;-96.766;2023-01-15T10:16:32;19.00;49.40
44517;DHT22;30223;17.182;-96.766;2023-01-15T10:19:00;18.90;49.30
44517;DHT22;30223;17.182;-96.766;2023-01-15T10:22:03;18.90;49.30
44517;DHT22;30223;17.182;-96.766;2023-01-15T10:24:39;18.90;49.30
44517;DHT22;30223;17.182;-96.766;2023-01-15T10:27:26;18.90;49.30
44517;DHT22;30223;17.182;-96.766;2023-01-15T10:30:05;18.90;49.30
44517;DHT22;30223;17.182;-96.766;2023-01-15T10:32:49;18.80;49.30
44517;DHT22;30223;17.182;-96.766;2023-01-15T10:38:35;18.80;49.30
44517;DHT22;30223;17.182;-96.766;2023-01-15T10:41:24;18.70;49.30
44517;DHT22;30223;17.182;-96.766;2023-01-15T10:44:35;18.80;49.30
44517;DHT22;30223;17.182;-96.766;2023-01-15T10:47:11;18.80;49.30
44517;DHT22;30223;17.182;-96.766;2023-01-15T10:49:40;18.70;49.20
44517;DHT22;30223;17.182;-96.766;2023-01-15T10:54:49;18.70;49.20
44517;DHT22;30223;17.182;-96.766;2023-01-15T10:57:24;18.60;49.70
44517;DHT22;30223;17.182;-96.766;2023-01-15T11:00:00;18.60;49.20
44517;DHT22;30223;17.182;-96.766;2023-01-15T11:04:57;18.60;49.20
44517;DHT22;30223;17.182;-96.766;2023-01-15T11:07:41;18.60;49.10
44517;DHT22;30223;17.182;-96.766;2023-01-15T11:10:12;18.50;49.00
44517;DHT22;30223;17.182;-96.766;2023-01-15T11:12:52;18.50;49.10
44517;DHT22;30223;17.182;-96.766;2023-01-15T11:15:37;18.50;49.10
44517;DHT22;30223;17.182;-96.766;2023-01-15T11:18:26;18.50;49.00
44517;DHT22;30223;17.182;-96.766;2023-01-15T11:21:17;18.50;49.10
44517;DHT22;30223;17.182;-96.766;2023-01-15T11:23:45;18.40;49.00
44517;DHT22;30223;17.182;-96.766;2023-01-15T11:26:38;18.40;49.00
44517;DHT22;30223;17.182;-96.766;2023-01-15T11:29:13;18.40;49.00
44517;DHT22;30223;17.182;-96.766;2023-01-15T11:31:41;18.40;49.00
44517;DHT22;30223;17.182;-96.766;2023-01-15T11:34:18;18.40;49.00
44517;DHT22;30223;17.182;-96.766;2023-01-15T11:37:03;18.40;49.00
44517;DHT22;30223;17.182;-96.766;2023-01-15T11:39:30;18.30;48.90
44517;DHT22;30223;17.182;-96.766;2023-01-15T11:42:11;18.30;49.00
44517;DHT22;30223;17.182;-96.766;2023-01-15T11:44:59;18.30;48.90
44517;DHT22;30223;17.182;-96.766;2023-01-15T11:47:54;18.30;49.00
44517;DHT22;30223;17.182;-96.766;2023-01-15T11:50:55;18.20;48.90
44517;DHT22;30223;17.182;-96.766;2023-01-15T11:53:28;18.20;48.90
44517;DHT22;30223;17.182;-96.766;2023-01-15T11:56:04;18.20;48.90
44517;DHT22;30223;17.182;-96.766;2023-01-15T11:58:50;18.20;48.90
44517;DHT22;30223;17.182;-96.766;2023-01-15T12:03:50;18.10;48.90
44517;DHT22;30223;17.182;-96.766;2023-01-15T12:06:19;18.10;48.90
44517;DHT22;30223;17.182;-96.766;2023-01-15T12:14:44;18.10;48.90
44517;DHT22;30223;17.182;-96.766;2023-01-15T12:26:39;17.90;48.80
44517;DHT22;30223;17.182;-96.766;2023-01-15T12:29:19;18.00;48.90
44517;DHT22;30223;17.182;-96.766;2023-01-15T12:32:03;17.90;48.80
44517;DHT22;30223;17.182;-96.766;2023-01-15T12:35:15;17.90;48.80
44517;DHT22;30223;17.182;-96.766;2023-01-15T12:37:56;17.90;48.80
44517;DHT22;30223;17.182;-96.766;2023-01-15T12:43:20;17.80;48.80
44517;DHT22;30223;17.182;-96.766;2023-01-15T12:46:11;17.80;48.80
44517;DHT22;30223;17.182;-96.766;2023-01-15T12:48:45;17.80;48.80
44517;DHT22;30223;17.182;-96.766;2023-01-15T12:51:23;17.80;48.80
44517;DHT22;30223;17.182;-96.766;2023-01-15T12:53:59;17.70;48.80
44517;DHT22;30223;17.182;-96.766;2023-01-15T12:57:01;17.70;48.70
44517;DHT22;30223;17.182;-96.766;2023-01-15T12:59:53;17.70;48.80
44517;DHT22;30223;17.182;-96.766;2023-01-15T13:05:07;17.70;48.80
44517;DHT22;30223;17.182;-96.766;2023-01-15T13:07:47;17.60;48.70
44517;DHT22;30223;17.182;-96.766;2023-01-15T13:10:26;17.60;48.70
44517;DHT22;30223;17.182;-96.766;2023-01-15T13:13:21;17.60;48.70
44517;DHT22;30223;17.182;-96.766;2023-01-15T13:15:59;17.60;48.70
44517;DHT22;30223;17.182;-96.766;2023-01-15T13:18:58;17.60;48.70
44517;DHT22;30223;17.182;-96.766;2023-01-15T13:21:29;17.50;48.70
44517;DHT22;30223;17.182;-96.766;2023-01-15T13:32:32;17.50;48.70
44517;DHT22;30223;17.182;-96.766;2023-01-15T13:35:19;17.40;48.70
44517;DHT22;30223;17.182;-96.766;2023-01-15T13:37:51;17.40;48.70
44517;DHT22;30223;17.182;-96.766;2023-01-15T13:42:53;17.40;48.70
44517;DHT22;30223;17.182;-96.766;2023-01-15T13:45:27;17.40;48.70
44517;DHT22;30223;17.182;-96.766;2023-01-15T13:48:03;17.40;48.70
44517;DHT22;30223;17.182;-96.766;2023-01-15T13:50:37;17.30;48.60
44517;DHT22;30223;17.182;-96.766;2023-01-15T13:53:31;17.30;48.70
44517;DHT22;30223;17.182;-96.766;2023-01-15T13:56:02;17.30;48.70
44517;DHT22;30223;17.182;-96.766;2023-01-15T13:58:33;17.30;48.70
44517;DHT22;30223;17.182;-96.766;2023-01-15T14:01:22;17.30;48.80
44517;DHT22;30223;17.182;-96.766;2023-01-15T14:06:48;17.20;48.80
44517;DHT22;30223;17.182;-96.766;2023-01-15T14:31:30;17.20;48.90
44517;DHT22;30223;17.182;-96.766;2023-01-15T14:39:39;17.10;48.90
44517;DHT22;30223;17.182;-96.766;2023-01-15T14:42:13;17.20;49.00
44517;DHT22;30223;17.182;-96.766;2023-01-15T14:45:29;17.10;48.90
44517;DHT22;30223;17.182;-96.766;2023-01-15T14:48:03;17.20;49.00
44517;DHT22;30223;17.182;-96.766;2023-01-15T14:50:41;17.20;49.00
44517;DHT22;30223;17.182;-96.766;2023-01-15T14:55:48;17.20;49.10
44517;DHT22;30223;17.182;-96.766;2023-01-15T14:58:36;17.20;49.10
44517;DHT22;30223;17.182;-96.766;2023-01-15T15:01:23;17.20;49.10
44517;DHT22;30223;17.182;-96.766;2023-01-15T15:04:12;17.20;49.10
44517;DHT22;30223;17.182;-96.766;2023-01-15T15:06:51;17.20;49.10
44517;DHT22;30223;17.182;-96.766;2023-01-15T15:09:41;17.20;49.80
44517;DHT22;30223;17.182;-96.766;2023-01-15T15:14:59;17.30;49.20
44517;DHT22;30223;17.182;-96.766;2023-01-15T15:26:00;17.30;49.20
44517;DHT22;30223;17.182;-96.766;2023-01-15T15:28:28;17.30;49.20
44517;DHT22;30223;17.182;-96.766;2023-01-15T15:30:56;17.30;49.20
44517;DHT22;30223;17.182;-96.766;2023-01-15T15:33:38;17.40;49.20
44517;DHT22;30223;17.182;-96.766;2023-01-15T15:36:06;17.40;49.20
44517;DHT22;30223;17.182;-96.766;2023-01-15T15:38:33;17.40;49.20
44517;DHT22;30223;17.182;-96.766;2023-01-15T15:41:04;17.40;49.10
44517;DHT22;30223;17.182;-96.766;2023-01-15T15:43:47;17.40;49.10
44517;DHT22;30223;17.182;-96.766;2023-01-15T15:46:34;17.40;49.10
44517;DHT22;30223;17.182;-96.766;2023-01-15T15:49:19;17.50;49.10
44517;DHT22;30223;17.182;-96.766;2023-01-15T15:51:50;17.50;49.10
44517;DHT22;30223;17.182;-96.766;2023-01-15T15:59:29;17.60;49.20
44517;DHT22;30223;17.182;-96.766;2023-01-15T16:01:59;17.60;49.20
44517;DHT22;30223;17.182;-96.766;2023-01-15T16:04:32;17.60;49.20
44517;DHT22;30223;17.182;-96.766;2023-01-15T16:06:59;17.60;49.20
44517;DHT22;30223;17.182;-96.766;2023-01-15T16:09:25;17.60;49.20
44517;DHT22;30223;17.182;-96.766;2023-01-15T16:11:53;17.70;49.20
44517;DHT22;30223;17.182;-96.766;2023-01-15T16:14:34;17.70;49.20
44517;DHT22;30223;17.182;-96.766;2023-01-15T16:17:02;17.70;49.20
44517;DHT22;30223;17.182;-96.766;2023-01-15T16:19:29;17.70;49.20
44517;DHT22;30223;17.182;-96.766;2023-01-15T16:21:56;17.80;49.30
44517;DHT22;30223;17.182;-96.766;2023-01-15T16:24:27;17.80;49.30
44517;DHT22;30223;17.182;-96.766;2023-01-15T16:27:05;17.80;49.20
44517;DHT22;30223;17.182;-96.766;2023-01-15T16:29:47;17.90;49.30
44517;DHT22;30223;17.182;-96.766;2023-01-15T16:32:23;17.90;49.30
44517;DHT22;30223;17.182;-96.766;2023-01-15T16:35:17;18.00;49.40
44517;DHT22;30223;17.182;-96.766;2023-01-15T16:37:55;17.90;49.30
44517;DHT22;30223;17.182;-96.766;2023-01-15T16:40:31;18.00;49.40
44517;DHT22;30223;17.182;-96.766;2023-01-15T16:43:21;18.00;49.30
44517;DHT22;30223;17.182;-96.766;2023-01-15T16:46:14;18.00;49.30
44517;DHT22;30223;17.182;-96.766;2023-01-15T16:48:41;18.10;49.40
44517;DHT22;30223;17.182;-96.766;2023-01-15T16:53:53;18.10;49.30
44517;DHT22;30223;17.182;-96.766;2023-01-15T16:56:47;18.10;49.30
44517;DHT22;30223;17.182;-96.766;2023-01-15T17:01:46;18.20;49.40
44517;DHT22;30223;17.182;-96.766;2023-01-15T17:04:23;18.20;49.40
44517;DHT22;30223;17.182;-96.766;2023-01-15T17:06:56;18.30;49.50
44517;DHT22;30223;17.182;-96.766;2023-01-15T17:09:23;18.30;49.40
44517;DHT22;30223;17.182;-96.766;2023-01-15T17:11:51;18.30;49.50
44517;DHT22;30223;17.182;-96.766;2023-01-15T17:14:22;18.30;49.50
44517;DHT22;30223;17.182;-96.766;2023-01-15T17:17:14;18.30;49.50
44517;DHT22;30223;17.182;-96.766;2023-01-15T17:19:35;18.40;49.50
44517;DHT22;30223;17.182;-96.766;2023-01-15T17:22:02;18.40;49.50
44517;DHT22;30223;17.182;-96.766;2023-01-15T17:24:29;18.40;49.50
44517;DHT22;30223;17.182;-96.766;2023-01-15T17:26:55;18.50;49.60
44517;DHT22;30223;17.182;-96.766;2023-01-15T17:29:22;18.50;49.60
44517;DHT22;30223;17.182;-96.766;2023-01-15T17:31:49;18.50;49.60
44517;DHT22;30223;17.182;-96.766;2023-01-15T17:34:15;18.50;49.50
44517;DHT22;30223;17.182;-96.766;2023-01-15T17:36:48;18.60;49.70
44517;DHT22;30223;17.182;-96.766;2023-01-15T17:39:14;18.60;49.60
44517;DHT22;30223;17.182;-96.766;2023-01-15T17:41:41;18.70;49.60
44517;DHT22;30223;17.182;-96.766;2023-01-15T17:44:09;18.70;49.50
44517;DHT22;30223;17.182;-96.766;2023-01-15T17:46:36;18.80;49.40
44517;DHT22;30223;17.182;-96.766;2023-01-15T17:49:02;18.80;49.40
44517;DHT22;30223;17.182;-96.766;2023-01-15T17:51:29;18.90;49.40
44517;DHT22;30223;17.182;-96.766;2023-01-15T17:53:56;19.00;49.30
44517;DHT22;30223;17.182;-96.766;2023-01-15T17:56:22;19.00;49.30